Etusivu
METAR-TAF:

METAR-TAF

Lentoasemat :

Lüderitz, Namibia

Leveyspiiri: 26-41S, Pituuspiiri: 015-15E, korkeus merenpinnasta: 130 m

Tämänhetkinen sää

Tämä raportti tehtiin 27 minuuttia sitten, kello 11.00 UTC
Tuuli 18 kn luoteesta
Lämpötila 23°C
Kosteus 69%
Ilmanpaine 1011 hPa

METAR: FYLZ 061100Z AUTO 32018KT //// // ////// 23/17 Q1011

Aika: 13:27 (11:27 UTC)

Sääennuste

Tämä raportti tehtiin 3 tuntia ja 27 minuuttia sitten, kello 08.00 UTC
Ennuste voimassa 06. päivästä klo 09 UTC - 06. päivään klo 18 UTC
Tuuli 8 kn luoteesta
Näkyvyys 10 km tai enemmän
Hajonneita pilviä 2000 ft:n korkeudessa
Tulossa
06. päivästä klo 11 UTC - 06. päivään klo 13 UTC
Tuuli 10 kn lännestä
Näkyvyys 10 km tai enemmän
ei pilviä alle 1500 m:ssä eikä cumulonimbus-pilviä

TAF: FYLZ 060800Z 0609/0618 32008KT 9999 BKN020 BECMG 0611/0613 28010KT CAVOK

Säähavainnot ja -ennusteet yli 4000 lentoasemalta (METAR- ja TAF-raportit).

Käytössä olevat sääasemat on merkitty karttaan keltaisilla ja punaisilla pisteillä.

Aseta hiiri pisteen päälle nähdäksesi sääaseman nimen.

Klikkaa sitten nähdäksesi säähavainnot ja -ennusteet.

Kartan vaihtaminen: klikkaa mustalla rastilla varustettuja vihreitä pisteitä, niin voit zoomata sisään; viivalla varustettua vihreää pistettä, niin voit zoomata ulos tai vihreitä nuolia, niin pääset viereisille kartoille.


METAR-TAF: